sensor_id;sensor_type;location;lat;lon;timestamp;P1;durP1;ratioP1;P2;durP2;ratioP2
61741;SDS011;47650;49.848;9.620;2023-05-07T00:04:10;4.65;;;2.58;;
61741;SDS011;47650;49.848;9.620;2023-05-07T00:06:38;4.22;;;2.20;;
61741;SDS011;47650;49.848;9.620;2023-05-07T00:09:07;4.47;;;2.35;;
61741;SDS011;47650;49.848;9.620;2023-05-07T00:11:33;6.35;;;2.65;;
61741;SDS011;47650;49.848;9.620;2023-05-07T00:13:59;4.80;;;2.67;;
61741;SDS011;47650;49.848;9.620;2023-05-07T00:16:25;4.95;;;2.55;;
61741;SDS011;47650;49.848;9.620;2023-05-07T00:18:56;5.50;;;2.50;;
61741;SDS011;47650;49.848;9.620;2023-05-07T00:21:21;9.88;;;2.20;;
61741;SDS011;47650;49.848;9.620;2023-05-07T00:23:53;7.57;;;2.63;;
61741;SDS011;47650;49.848;9.620;2023-05-07T00:26:19;4.57;;;2.50;;
61741;SDS011;47650;49.848;9.620;2023-05-07T00:28:45;3.10;;;2.22;;
61741;SDS011;47650;49.848;9.620;2023-05-07T00:31:10;4.93;;;2.80;;
61741;SDS011;47650;49.848;9.620;2023-05-07T00:33:38;4.22;;;2.40;;
61741;SDS011;47650;49.848;9.620;2023-05-07T00:36:03;7.13;;;2.97;;
61741;SDS011;47650;49.848;9.620;2023-05-07T00:38:29;4.80;;;2.67;;
61741;SDS011;47650;49.848;9.620;2023-05-07T00:40:56;6.75;;;2.70;;
61741;SDS011;47650;49.848;9.620;2023-05-07T00:43:21;5.07;;;2.35;;
61741;SDS011;47650;49.848;9.620;2023-05-07T00:45:48;5.05;;;2.63;;
61741;SDS011;47650;49.848;9.620;2023-05-07T00:48:15;7.13;;;2.55;;
61741;SDS011;47650;49.848;9.620;2023-05-07T00:50:42;5.50;;;2.70;;
61741;SDS011;47650;49.848;9.620;2023-05-07T00:53:08;3.53;;;2.50;;
61741;SDS011;47650;49.848;9.620;2023-05-07T00:55:35;6.13;;;2.38;;
61741;SDS011;47650;49.848;9.620;2023-05-07T00:58:03;6.57;;;2.40;;
61741;SDS011;47650;49.848;9.620;2023-05-07T01:00:32;5.43;;;2.25;;
61741;SDS011;47650;49.848;9.620;2023-05-07T01:02:58;6.43;;;2.40;;
61741;SDS011;47650;49.848;9.620;2023-05-07T01:05:25;3.72;;;2.17;;
61741;SDS011;47650;49.848;9.620;2023-05-07T01:08:05;4.75;;;2.80;;
61741;SDS011;47650;49.848;9.620;2023-05-07T01:10:32;5.88;;;2.35;;
61741;SDS011;47650;49.848;9.620;2023-05-07T01:13:02;3.65;;;2.58;;
61741;SDS011;47650;49.848;9.620;2023-05-07T01:15:30;5.00;;;2.67;;
61741;SDS011;47650;49.848;9.620;2023-05-07T01:17:59;5.82;;;2.85;;
61741;SDS011;47650;49.848;9.620;2023-05-07T01:20:25;5.25;;;2.80;;
61741;SDS011;47650;49.848;9.620;2023-05-07T01:22:52;4.93;;;3.20;;
61741;SDS011;47650;49.848;9.620;2023-05-07T01:25:18;5.15;;;3.22;;
61741;SDS011;47650;49.848;9.620;2023-05-07T01:27:46;6.40;;;3.53;;
61741;SDS011;47650;49.848;9.620;2023-05-07T01:30:11;7.85;;;4.00;;
61741;SDS011;47650;49.848;9.620;2023-05-07T01:35:17;6.90;;;3.65;;
61741;SDS011;47650;49.848;9.620;2023-05-07T01:37:46;11.75;;;4.50;;
61741;SDS011;47650;49.848;9.620;2023-05-07T01:40:13;4.68;;;3.90;;
61741;SDS011;47650;49.848;9.620;2023-05-07T01:42:45;7.18;;;3.38;;
61741;SDS011;47650;49.848;9.620;2023-05-07T01:45:13;7.45;;;3.55;;
61741;SDS011;47650;49.848;9.620;2023-05-07T01:47:39;6.32;;;4.00;;
61741;SDS011;47650;49.848;9.620;2023-05-07T01:50:05;8.13;;;3.85;;
61741;SDS011;47650;49.848;9.620;2023-05-07T01:52:32;4.32;;;3.80;;
61741;SDS011;47650;49.848;9.620;2023-05-07T01:54:59;6.68;;;3.70;;
61741;SDS011;47650;49.848;9.620;2023-05-07T01:57:27;6.22;;;3.58;;
61741;SDS011;47650;49.848;9.620;2023-05-07T01:59:55;7.22;;;3.55;;
61741;SDS011;47650;49.848;9.620;2023-05-07T02:02:21;7.53;;;3.50;;
61741;SDS011;47650;49.848;9.620;2023-05-07T02:04:49;5.32;;;2.95;;
61741;SDS011;47650;49.848;9.620;2023-05-07T02:07:21;4.57;;;2.63;;
61741;SDS011;47650;49.848;9.620;2023-05-07T02:09:47;7.22;;;3.20;;
61741;SDS011;47650;49.848;9.620;2023-05-07T02:12:16;6.00;;;3.17;;
61741;SDS011;47650;49.848;9.620;2023-05-07T02:14:46;5.57;;;3.33;;
61741;SDS011;47650;49.848;9.620;2023-05-07T02:17:11;4.28;;;2.70;;
61741;SDS011;47650;49.848;9.620;2023-05-07T02:19:38;3.47;;;3.00;;
61741;SDS011;47650;49.848;9.620;2023-05-07T02:22:06;4.68;;;3.00;;
61741;SDS011;47650;49.848;9.620;2023-05-07T02:24:34;5.60;;;3.30;;
61741;SDS011;47650;49.848;9.620;2023-05-07T02:27:08;6.38;;;4.07;;
61741;SDS011;47650;49.848;9.620;2023-05-07T02:29:33;3.95;;;3.25;;
61741;SDS011;47650;49.848;9.620;2023-05-07T02:31:59;4.95;;;2.88;;
61741;SDS011;47650;49.848;9.620;2023-05-07T02:34:26;8.50;;;3.50;;
61741;SDS011;47650;49.848;9.620;2023-05-07T02:36:57;4.57;;;3.00;;
61741;SDS011;47650;49.848;9.620;2023-05-07T02:39:26;4.25;;;2.80;;
61741;SDS011;47650;49.848;9.620;2023-05-07T02:41:51;4.97;;;2.80;;
61741;SDS011;47650;49.848;9.620;2023-05-07T02:44:24;2.83;;;2.60;;
61741;SDS011;47650;49.848;9.620;2023-05-07T02:46:56;3.25;;;2.72;;
61741;SDS011;47650;49.848;9.620;2023-05-07T02:49:21;4.47;;;2.65;;
61741;SDS011;47650;49.848;9.620;2023-05-07T02:51:46;6.03;;;3.20;;
61741;SDS011;47650;49.848;9.620;2023-05-07T02:54:19;7.13;;;3.20;;
61741;SDS011;47650;49.848;9.620;2023-05-07T02:56:45;7.97;;;3.53;;
61741;SDS011;47650;49.848;9.620;2023-05-07T02:59:11;4.85;;;3.20;;
61741;SDS011;47650;49.848;9.620;2023-05-07T03:01:38;7.55;;;3.17;;
61741;SDS011;47650;49.848;9.620;2023-05-07T03:04:07;4.72;;;2.90;;
61741;SDS011;47650;49.848;9.620;2023-05-07T03:06:33;5.43;;;2.70;;
61741;SDS011;47650;49.848;9.620;2023-05-07T03:09:03;6.97;;;2.97;;
61741;SDS011;47650;49.848;9.620;2023-05-07T03:11:32;3.95;;;3.22;;
61741;SDS011;47650;49.848;9.620;2023-05-07T03:13:57;6.32;;;4.22;;
61741;SDS011;47650;49.848;9.620;2023-05-07T03:16:23;10.05;;;4.25;;
61741;SDS011;47650;49.848;9.620;2023-05-07T03:18:51;5.18;;;3.60;;
61741;SDS011;47650;49.848;9.620;2023-05-07T03:21:17;4.28;;;3.88;;
61741;SDS011;47650;49.848;9.620;2023-05-07T03:23:43;7.20;;;4.00;;
61741;SDS011;47650;49.848;9.620;2023-05-07T03:26:08;10.07;;;4.25;;
61741;SDS011;47650;49.848;9.620;2023-05-07T03:28:33;10.15;;;5.00;;
61741;SDS011;47650;49.848;9.620;2023-05-07T03:31:00;8.48;;;5.55;;
61741;SDS011;47650;49.848;9.620;2023-05-07T03:33:27;5.78;;;4.70;;
61741;SDS011;47650;49.848;9.620;2023-05-07T03:35:52;8.13;;;5.43;;
61741;SDS011;47650;49.848;9.620;2023-05-07T03:38:19;6.03;;;5.43;;
61741;SDS011;47650;49.848;9.620;2023-05-07T03:40:44;6.70;;;4.97;;
61741;SDS011;47650;49.848;9.620;2023-05-07T03:43:09;7.82;;;4.35;;
61741;SDS011;47650;49.848;9.620;2023-05-07T03:45:35;8.98;;;4.70;;
61741;SDS011;47650;49.848;9.620;2023-05-07T03:48:09;5.22;;;3.92;;
61741;SDS011;47650;49.848;9.620;2023-05-07T03:50:34;3.85;;;3.45;;
61741;SDS011;47650;49.848;9.620;2023-05-07T03:53:09;5.72;;;4.80;;
61741;SDS011;47650;49.848;9.620;2023-05-07T03:55:34;6.40;;;4.90;;
61741;SDS011;47650;49.848;9.620;2023-05-07T03:58:01;5.78;;;4.40;;
61741;SDS011;47650;49.848;9.620;2023-05-07T04:00:34;4.72;;;4.22;;
61741;SDS011;47650;49.848;9.620;2023-05-07T04:03:08;4.30;;;3.47;;
61741;SDS011;47650;49.848;9.620;2023-05-07T04:05:35;7.03;;;3.70;;
61741;SDS011;47650;49.848;9.620;2023-05-07T04:08:01;4.70;;;3.40;;
61741;SDS011;47650;49.848;9.620;2023-05-07T04:10:28;5.15;;;3.28;;
61741;SDS011;47650;49.848;9.620;2023-05-07T04:12:55;4.95;;;3.30;;
61741;SDS011;47650;49.848;9.620;2023-05-07T04:15:21;4.63;;;3.08;;
61741;SDS011;47650;49.848;9.620;2023-05-07T04:17:47;5.15;;;4.65;;
61741;SDS011;47650;49.848;9.620;2023-05-07T04:20:14;4.85;;;4.38;;
61741;SDS011;47650;49.848;9.620;2023-05-07T04:22:42;5.45;;;3.90;;
61741;SDS011;47650;49.848;9.620;2023-05-07T04:25:11;6.00;;;3.72;;
61741;SDS011;47650;49.848;9.620;2023-05-07T04:27:41;12.23;;;3.90;;
61741;SDS011;47650;49.848;9.620;2023-05-07T04:30:07;5.35;;;4.10;;
61741;SDS011;47650;49.848;9.620;2023-05-07T04:32:35;7.03;;;4.38;;
61741;SDS011;47650;49.848;9.620;2023-05-07T04:35:02;5.93;;;4.40;;
61741;SDS011;47650;49.848;9.620;2023-05-07T04:37:31;5.65;;;4.60;;
61741;SDS011;47650;49.848;9.620;2023-05-07T04:39:57;7.40;;;4.43;;
61741;SDS011;47650;49.848;9.620;2023-05-07T04:42:22;6.70;;;4.78;;
61741;SDS011;47650;49.848;9.620;2023-05-07T04:44:52;5.03;;;3.78;;
61741;SDS011;47650;49.848;9.620;2023-05-07T04:47:20;7.53;;;3.83;;
61741;SDS011;47650;49.848;9.620;2023-05-07T04:49:55;6.00;;;3.53;;
61741;SDS011;47650;49.848;9.620;2023-05-07T04:54:48;5.65;;;3.30;;
61741;SDS011;47650;49.848;9.620;2023-05-07T04:59:42;5.63;;;4.30;;
61741;SDS011;47650;49.848;9.620;2023-05-07T05:02:09;7.68;;;6.75;;
61741;SDS011;47650;49.848;9.620;2023-05-07T05:04:35;6.32;;;4.72;;
61741;SDS011;47650;49.848;9.620;2023-05-07T05:07:02;5.03;;;4.55;;
61741;SDS011;47650;49.848;9.620;2023-05-07T05:09:30;4.38;;;3.75;;
61741;SDS011;47650;49.848;9.620;2023-05-07T05:11:55;8.77;;;3.47;;
61741;SDS011;47650;49.848;9.620;2023-05-07T05:14:21;4.47;;;4.00;;
61741;SDS011;47650;49.848;9.620;2023-05-07T05:16:46;6.97;;;4.50;;
61741;SDS011;47650;49.848;9.620;2023-05-07T05:19:12;8.05;;;5.55;;
61741;SDS011;47650;49.848;9.620;2023-05-07T05:21:39;5.00;;;4.50;;
61741;SDS011;47650;49.848;9.620;2023-05-07T05:24:04;5.85;;;4.53;;
61741;SDS011;47650;49.848;9.620;2023-05-07T05:26:34;4.70;;;3.78;;
61741;SDS011;47650;49.848;9.620;2023-05-07T05:28:59;5.45;;;3.65;;
61741;SDS011;47650;49.848;9.620;2023-05-07T05:31:26;6.50;;;3.72;;
61741;SDS011;47650;49.848;9.620;2023-05-07T05:33:51;5.60;;;4.28;;
61741;SDS011;47650;49.848;9.620;2023-05-07T05:36:18;4.53;;;4.05;;
61741;SDS011;47650;49.848;9.620;2023-05-07T05:38:45;5.30;;;4.70;;
61741;SDS011;47650;49.848;9.620;2023-05-07T05:41:17;6.32;;;5.75;;
61741;SDS011;47650;49.848;9.620;2023-05-07T05:43:43;5.20;;;4.70;;
61741;SDS011;47650;49.848;9.620;2023-05-07T05:46:08;4.38;;;3.97;;
61741;SDS011;47650;49.848;9.620;2023-05-07T05:48:36;4.38;;;3.97;;
61741;SDS011;47650;49.848;9.620;2023-05-07T05:51:01;5.80;;;4.13;;
61741;SDS011;47650;49.848;9.620;2023-05-07T05:53:29;6.13;;;4.00;;
61741;SDS011;47650;49.848;9.620;2023-05-07T05:55:54;4.57;;;3.85;;
61741;SDS011;47650;49.848;9.620;2023-05-07T05:58:21;7.85;;;5.03;;
61741;SDS011;47650;49.848;9.620;2023-05-07T06:00:53;6.53;;;4.78;;
61741;SDS011;47650;49.848;9.620;2023-05-07T06:03:20;5.35;;;4.72;;
61741;SDS011;47650;49.848;9.620;2023-05-07T06:05:49;6.03;;;5.32;;
61741;SDS011;47650;49.848;9.620;2023-05-07T06:08:16;6.88;;;5.85;;
61741;SDS011;47650;49.848;9.620;2023-05-07T06:10:42;6.90;;;6.20;;
61741;SDS011;47650;49.848;9.620;2023-05-07T06:13:07;6.90;;;6.30;;
61741;SDS011;47650;49.848;9.620;2023-05-07T06:18:06;7.10;;;6.40;;
61741;SDS011;47650;49.848;9.620;2023-05-07T06:20:31;7.43;;;6.28;;
61741;SDS011;47650;49.848;9.620;2023-05-07T06:22:58;6.70;;;6.10;;
61741;SDS011;47650;49.848;9.620;2023-05-07T06:25:25;6.78;;;6.18;;
61741;SDS011;47650;49.848;9.620;2023-05-07T06:27:53;8.00;;;6.35;;
61741;SDS011;47650;49.848;9.620;2023-05-07T06:30:20;7.32;;;6.68;;
61741;SDS011;47650;49.848;9.620;2023-05-07T06:32:46;6.97;;;6.25;;
61741;SDS011;47650;49.848;9.620;2023-05-07T06:35:14;7.05;;;6.35;;
61741;SDS011;47650;49.848;9.620;2023-05-07T06:37:43;6.45;;;5.82;;
61741;SDS011;47650;49.848;9.620;2023-05-07T06:40:08;7.00;;;6.32;;
61741;SDS011;47650;49.848;9.620;2023-05-07T06:42:36;6.80;;;6.18;;
61741;SDS011;47650;49.848;9.620;2023-05-07T06:45:05;7.22;;;6.47;;
61741;SDS011;47650;49.848;9.620;2023-05-07T06:47:35;7.20;;;6.60;;
61741;SDS011;47650;49.848;9.620;2023-05-07T06:50:00;7.43;;;6.53;;
61741;SDS011;47650;49.848;9.620;2023-05-07T06:52:25;7.45;;;6.80;;
61741;SDS011;47650;49.848;9.620;2023-05-07T06:54:52;9.35;;;7.05;;
61741;SDS011;47650;49.848;9.620;2023-05-07T06:57:17;7.45;;;6.63;;
61741;SDS011;47650;49.848;9.620;2023-05-07T06:59:43;7.45;;;6.72;;
61741;SDS011;47650;49.848;9.620;2023-05-07T07:02:13;9.63;;;6.50;;
61741;SDS011;47650;49.848;9.620;2023-05-07T07:04:39;7.72;;;7.03;;
61741;SDS011;47650;49.848;9.620;2023-05-07T07:07:05;6.60;;;6.10;;
61741;SDS011;47650;49.848;9.620;2023-05-07T07:09:34;7.70;;;6.90;;
61741;SDS011;47650;49.848;9.620;2023-05-07T07:11:59;7.20;;;6.43;;
61741;SDS011;47650;49.848;9.620;2023-05-07T07:14:24;6.93;;;6.30;;
61741;SDS011;47650;49.848;9.620;2023-05-07T07:16:50;6.65;;;6.05;;
61741;SDS011;47650;49.848;9.620;2023-05-07T07:19:21;7.30;;;6.65;;
61741;SDS011;47650;49.848;9.620;2023-05-07T07:21:47;7.03;;;6.40;;
61741;SDS011;47650;49.848;9.620;2023-05-07T07:24:19;7.28;;;6.57;;
61741;SDS011;47650;49.848;9.620;2023-05-07T07:26:46;6.93;;;6.22;;
61741;SDS011;47650;49.848;9.620;2023-05-07T07:29:11;6.63;;;6.03;;
61741;SDS011;47650;49.848;9.620;2023-05-07T07:31:43;6.68;;;5.97;;
61741;SDS011;47650;49.848;9.620;2023-05-07T07:36:36;6.68;;;6.07;;
61741;SDS011;47650;49.848;9.620;2023-05-07T07:39:01;7.82;;;6.03;;
61741;SDS011;47650;49.848;9.620;2023-05-07T07:41:26;6.80;;;5.57;;
61741;SDS011;47650;49.848;9.620;2023-05-07T07:43:53;6.38;;;5.78;;
61741;SDS011;47650;49.848;9.620;2023-05-07T07:46:19;6.30;;;5.70;;
61741;SDS011;47650;49.848;9.620;2023-05-07T07:48:45;6.90;;;6.15;;
61741;SDS011;47650;49.848;9.620;2023-05-07T07:51:10;7.70;;;6.05;;
61741;SDS011;47650;49.848;9.620;2023-05-07T07:53:36;7.28;;;5.88;;
61741;SDS011;47650;49.848;9.620;2023-05-07T07:56:01;6.57;;;6.03;;
61741;SDS011;47650;49.848;9.620;2023-05-07T07:58:28;6.90;;;6.20;;
61741;SDS011;47650;49.848;9.620;2023-05-07T08:00:53;6.70;;;6.10;;
61741;SDS011;47650;49.848;9.620;2023-05-07T08:03:20;6.28;;;5.68;;
61741;SDS011;47650;49.848;9.620;2023-05-07T08:05:46;6.75;;;6.15;;
61741;SDS011;47650;49.848;9.620;2023-05-07T08:08:13;5.97;;;5.38;;
61741;SDS011;47650;49.848;9.620;2023-05-07T08:10:41;7.43;;;5.97;;
61741;SDS011;47650;49.848;9.620;2023-05-07T08:13:06;6.40;;;5.72;;
61741;SDS011;47650;49.848;9.620;2023-05-07T08:15:32;6.97;;;6.00;;
61741;SDS011;47650;49.848;9.620;2023-05-07T08:17:59;6.15;;;5.55;;
61741;SDS011;47650;49.848;9.620;2023-05-07T08:20:26;6.10;;;5.60;;
61741;SDS011;47650;49.848;9.620;2023-05-07T08:22:53;6.68;;;6.18;;
61741;SDS011;47650;49.848;9.620;2023-05-07T08:25:20;6.32;;;5.72;;
61741;SDS011;47650;49.848;9.620;2023-05-07T08:27:46;7.28;;;6.15;;
61741;SDS011;47650;49.848;9.620;2023-05-07T08:30:11;6.55;;;5.97;;
61741;SDS011;47650;49.848;9.620;2023-05-07T08:32:37;5.88;;;5.38;;
61741;SDS011;47650;49.848;9.620;2023-05-07T08:35:02;6.03;;;5.40;;
61741;SDS011;47650;49.848;9.620;2023-05-07T08:39:56;6.63;;;5.80;;
61741;SDS011;47650;49.848;9.620;2023-05-07T08:42:22;7.35;;;5.70;;
61741;SDS011;47650;49.848;9.620;2023-05-07T08:44:50;6.03;;;5.30;;
61741;SDS011;47650;49.848;9.620;2023-05-07T08:47:18;6.65;;;6.05;;
61741;SDS011;47650;49.848;9.620;2023-05-07T08:49:44;6.25;;;5.63;;
61741;SDS011;47650;49.848;9.620;2023-05-07T08:52:11;6.65;;;6.15;;
61741;SDS011;47650;49.848;9.620;2023-05-07T08:54:38;7.40;;;6.22;;
61741;SDS011;47650;49.848;9.620;2023-05-07T08:57:04;7.88;;;6.35;;
61741;SDS011;47650;49.848;9.620;2023-05-07T08:59:29;5.22;;;4.72;;
61741;SDS011;47650;49.848;9.620;2023-05-07T09:01:55;8.20;;;5.03;;
61741;SDS011;47650;49.848;9.620;2023-05-07T09:04:21;6.00;;;5.45;;
61741;SDS011;47650;49.848;9.620;2023-05-07T09:06:47;5.82;;;5.43;;
61741;SDS011;47650;49.848;9.620;2023-05-07T09:09:16;7.95;;;5.47;;
61741;SDS011;47650;49.848;9.620;2023-05-07T09:11:43;4.70;;;4.30;;
61741;SDS011;47650;49.848;9.620;2023-05-07T09:14:09;5.72;;;5.22;;
61741;SDS011;47650;49.848;9.620;2023-05-07T09:16:34;5.28;;;4.78;;
61741;SDS011;47650;49.848;9.620;2023-05-07T09:19:00;5.00;;;4.22;;
61741;SDS011;47650;49.848;9.620;2023-05-07T09:21:26;5.95;;;5.30;;
61741;SDS011;47650;49.848;9.620;2023-05-07T09:23:52;5.75;;;4.90;;
61741;SDS011;47650;49.848;9.620;2023-05-07T09:26:22;8.50;;;7.57;;
61741;SDS011;47650;49.848;9.620;2023-05-07T09:28:49;8.77;;;7.97;;
61741;SDS011;47650;49.848;9.620;2023-05-07T09:31:15;5.28;;;4.82;;
61741;SDS011;47650;49.848;9.620;2023-05-07T09:33:41;5.60;;;4.95;;
61741;SDS011;47650;49.848;9.620;2023-05-07T09:36:07;6.97;;;5.35;;
61741;SDS011;47650;49.848;9.620;2023-05-07T09:38:35;4.95;;;4.57;;
61741;SDS011;47650;49.848;9.620;2023-05-07T09:41:03;5.63;;;5.13;;
61741;SDS011;47650;49.848;9.620;2023-05-07T09:43:31;5.72;;;5.20;;
61741;SDS011;47650;49.848;9.620;2023-05-07T09:45:58;5.45;;;4.95;;
61741;SDS011;47650;49.848;9.620;2023-05-07T09:48:27;5.80;;;5.10;;
61741;SDS011;47650;49.848;9.620;2023-05-07T09:50:55;4.93;;;4.40;;
61741;SDS011;47650;49.848;9.620;2023-05-07T09:53:23;5.40;;;4.90;;
61741;SDS011;47650;49.848;9.620;2023-05-07T09:55:49;5.22;;;4.72;;
61741;SDS011;47650;49.848;9.620;2023-05-07T09:58:18;5.22;;;4.82;;
61741;SDS011;47650;49.848;9.620;2023-05-07T10:00:44;4.95;;;4.47;;
61741;SDS011;47650;49.848;9.620;2023-05-07T10:03:10;5.63;;;5.03;;
61741;SDS011;47650;49.848;9.620;2023-05-07T10:05:39;5.35;;;4.93;;
61741;SDS011;47650;49.848;9.620;2023-05-07T10:08:05;5.55;;;5.00;;
61741;SDS011;47650;49.848;9.620;2023-05-07T10:10:32;5.20;;;4.70;;
61741;SDS011;47650;49.848;9.620;2023-05-07T10:12:58;7.47;;;6.80;;
61741;SDS011;47650;49.848;9.620;2023-05-07T10:15:27;5.25;;;4.75;;
61741;SDS011;47650;49.848;9.620;2023-05-07T10:17:54;5.43;;;5.03;;
61741;SDS011;47650;49.848;9.620;2023-05-07T10:20:21;5.97;;;5.47;;
61741;SDS011;47650;49.848;9.620;2023-05-07T10:22:47;6.53;;;6.03;;
61741;SDS011;47650;49.848;9.620;2023-05-07T10:27:52;4.93;;;4.53;;
61741;SDS011;47650;49.848;9.620;2023-05-07T10:30:24;5.10;;;4.38;;
61741;SDS011;47650;49.848;9.620;2023-05-07T10:32:56;4.65;;;4.25;;
61741;SDS011;47650;49.848;9.620;2023-05-07T10:35:31;5.20;;;4.80;;
61741;SDS011;47650;49.848;9.620;2023-05-07T10:38:01;5.38;;;4.97;;
61741;SDS011;47650;49.848;9.620;2023-05-07T10:40:28;6.28;;;5.80;;
61741;SDS011;47650;49.848;9.620;2023-05-07T10:42:58;5.15;;;4.30;;
61741;SDS011;47650;49.848;9.620;2023-05-07T10:45:25;5.22;;;4.82;;
61741;SDS011;47650;49.848;9.620;2023-05-07T10:50:41;6.18;;;5.57;;
61741;SDS011;47650;49.848;9.620;2023-05-07T10:55:41;6.00;;;5.60;;
61741;SDS011;47650;49.848;9.620;2023-05-07T11:00:47;5.05;;;4.70;;
61741;SDS011;47650;49.848;9.620;2023-05-07T11:03:14;4.93;;;4.57;;
61741;SDS011;47650;49.848;9.620;2023-05-07T11:05:41;4.90;;;4.50;;
61741;SDS011;47650;49.848;9.620;2023-05-07T11:08:07;5.18;;;4.70;;
61741;SDS011;47650;49.848;9.620;2023-05-07T11:16:23;4.78;;;3.50;;
61741;SDS011;47650;49.848;9.620;2023-05-07T11:18:50;4.40;;;3.58;;
61741;SDS011;47650;49.848;9.620;2023-05-07T11:21:37;4.60;;;4.20;;
61741;SDS011;47650;49.848;9.620;2023-05-07T11:24:04;5.30;;;4.38;;
61741;SDS011;47650;49.848;9.620;2023-05-07T11:26:31;4.60;;;4.20;;
61741;SDS011;47650;49.848;9.620;2023-05-07T11:29:17;3.88;;;3.47;;
61741;SDS011;47650;49.848;9.620;2023-05-07T11:31:48;4.80;;;4.20;;
61741;SDS011;47650;49.848;9.620;2023-05-07T11:34:20;4.07;;;3.67;;
61741;SDS011;47650;49.848;9.620;2023-05-07T11:36:50;4.72;;;3.75;;
61741;SDS011;47650;49.848;9.620;2023-05-07T11:39:23;4.22;;;3.85;;
61741;SDS011;47650;49.848;9.620;2023-05-07T11:42:01;3.78;;;3.30;;
61741;SDS011;47650;49.848;9.620;2023-05-07T11:44:43;4.88;;;3.50;;
61741;SDS011;47650;49.848;9.620;2023-05-07T11:47:21;5.53;;;3.53;;
61741;SDS011;47650;49.848;9.620;2023-05-07T11:49:47;3.20;;;2.90;;
61741;SDS011;47650;49.848;9.620;2023-05-07T11:52:16;4.38;;;3.20;;
61741;SDS011;47650;49.848;9.620;2023-05-07T11:54:51;5.13;;;3.20;;
61741;SDS011;47650;49.848;9.620;2023-05-07T11:57:22;3.40;;;3.10;;
61741;SDS011;47650;49.848;9.620;2023-05-07T11:59:54;3.47;;;3.10;;
61741;SDS011;47650;49.848;9.620;2023-05-07T12:02:23;3.78;;;3.47;;
61741;SDS011;47650;49.848;9.620;2023-05-07T12:04:54;3.80;;;3.50;;
61741;SDS011;47650;49.848;9.620;2023-05-07T12:07:23;3.20;;;2.90;;
61741;SDS011;47650;49.848;9.620;2023-05-07T12:09:50;3.28;;;2.92;;
61741;SDS011;47650;49.848;9.620;2023-05-07T12:12:17;3.22;;;2.92;;
61741;SDS011;47650;49.848;9.620;2023-05-07T12:14:43;3.53;;;3.22;;
61741;SDS011;47650;49.848;9.620;2023-05-07T12:17:11;3.55;;;3.25;;
61741;SDS011;47650;49.848;9.620;2023-05-07T12:19:41;3.50;;;3.20;;
61741;SDS011;47650;49.848;9.620;2023-05-07T12:22:13;2.92;;;2.72;;
61741;SDS011;47650;49.848;9.620;2023-05-07T12:24:46;4.03;;;2.63;;
61741;SDS011;47650;49.848;9.620;2023-05-07T12:27:15;2.95;;;2.75;;
61741;SDS011;47650;49.848;9.620;2023-05-07T12:29:46;3.00;;;2.70;;
61741;SDS011;47650;49.848;9.620;2023-05-07T12:32:18;2.40;;;2.15;;
61741;SDS011;47650;49.848;9.620;2023-05-07T12:34:45;3.55;;;2.33;;
61741;SDS011;47650;49.848;9.620;2023-05-07T12:37:13;4.80;;;2.95;;
61741;SDS011;47650;49.848;9.620;2023-05-07T12:39:48;2.90;;;2.60;;
61741;SDS011;47650;49.848;9.620;2023-05-07T12:42:35;2.72;;;2.45;;
61741;SDS011;47650;49.848;9.620;2023-05-07T12:45:12;5.38;;;2.58;;
61741;SDS011;47650;49.848;9.620;2023-05-07T12:47:43;3.00;;;2.60;;
61741;SDS011;47650;49.848;9.620;2023-05-07T12:50:10;3.17;;;2.70;;
61741;SDS011;47650;49.848;9.620;2023-05-07T12:52:37;3.17;;;2.58;;
61741;SDS011;47650;49.848;9.620;2023-05-07T12:57:39;2.22;;;1.70;;
61741;SDS011;47650;49.848;9.620;2023-05-07T13:00:06;2.20;;;2.00;;
61741;SDS011;47650;49.848;9.620;2023-05-07T13:02:34;2.70;;;2.10;;
61741;SDS011;47650;49.848;9.620;2023-05-07T13:05:09;3.72;;;2.10;;
61741;SDS011;47650;49.848;9.620;2023-05-07T13:07:36;3.63;;;2.25;;
61741;SDS011;47650;49.848;9.620;2023-05-07T13:10:04;3.92;;;2.30;;
61741;SDS011;47650;49.848;9.620;2023-05-07T13:12:32;3.60;;;2.22;;
61741;SDS011;47650;49.848;9.620;2023-05-07T13:15:02;2.25;;;2.15;;
61741;SDS011;47650;49.848;9.620;2023-05-07T13:17:27;3.33;;;2.20;;
61741;SDS011;47650;49.848;9.620;2023-05-07T13:19:54;4.23;;;2.70;;
61741;SDS011;47650;49.848;9.620;2023-05-07T13:22:20;2.80;;;2.53;;
61741;SDS011;47650;49.848;9.620;2023-05-07T13:25:03;2.55;;;2.00;;
61741;SDS011;47650;49.848;9.620;2023-05-07T13:27:29;2.30;;;2.10;;
61741;SDS011;47650;49.848;9.620;2023-05-07T13:29:57;2.60;;;2.40;;
61741;SDS011;47650;49.848;9.620;2023-05-07T13:32:23;2.47;;;2.10;;
61741;SDS011;47650;49.848;9.620;2023-05-07T13:34:54;2.30;;;2.10;;
61741;SDS011;47650;49.848;9.620;2023-05-07T13:37:20;4.50;;;2.03;;
61741;SDS011;47650;49.848;9.620;2023-05-07T13:39:45;2.35;;;2.00;;
61741;SDS011;47650;49.848;9.620;2023-05-07T13:42:11;2.50;;;2.30;;
61741;SDS011;47650;49.848;9.620;2023-05-07T13:44:36;2.63;;;2.10;;
61741;SDS011;47650;49.848;9.620;2023-05-07T13:47:01;2.80;;;2.53;;
61741;SDS011;47650;49.848;9.620;2023-05-07T13:49:27;2.63;;;2.30;;
61741;SDS011;47650;49.848;9.620;2023-05-07T13:51:53;2.85;;;2.55;;
61741;SDS011;47650;49.848;9.620;2023-05-07T13:54:18;4.73;;;2.47;;
61741;SDS011;47650;49.848;9.620;2023-05-07T13:56:45;2.53;;;2.33;;
61741;SDS011;47650;49.848;9.620;2023-05-07T13:59:11;2.40;;;2.20;;
61741;SDS011;47650;49.848;9.620;2023-05-07T14:01:46;3.55;;;1.98;;
61741;SDS011;47650;49.848;9.620;2023-05-07T14:04:13;2.70;;;2.17;;
61741;SDS011;47650;49.848;9.620;2023-05-07T14:06:39;2.63;;;2.10;;
61741;SDS011;47650;49.848;9.620;2023-05-07T14:09:04;2.58;;;2.38;;
61741;SDS011;47650;49.848;9.620;2023-05-07T14:11:30;2.40;;;2.20;;
61741;SDS011;47650;49.848;9.620;2023-05-07T14:13:55;2.28;;;1.83;;
61741;SDS011;47650;49.848;9.620;2023-05-07T14:16:23;3.08;;;1.90;;
61741;SDS011;47650;49.848;9.620;2023-05-07T14:18:48;3.05;;;2.25;;
61741;SDS011;47650;49.848;9.620;2023-05-07T14:21:14;2.85;;;2.28;;
61741;SDS011;47650;49.848;9.620;2023-05-07T14:23:39;3.92;;;2.20;;
61741;SDS011;47650;49.848;9.620;2023-05-07T14:26:04;5.13;;;4.18;;
61741;SDS011;47650;49.848;9.620;2023-05-07T14:28:30;3.20;;;2.90;;
61741;SDS011;47650;49.848;9.620;2023-05-07T14:30:57;2.92;;;2.10;;
61741;SDS011;47650;49.848;9.620;2023-05-07T14:33:24;2.40;;;2.20;;
61741;SDS011;47650;49.848;9.620;2023-05-07T14:35:49;4.32;;;3.95;;
61741;SDS011;47650;49.848;9.620;2023-05-07T14:38:16;2.15;;;1.95;;
61741;SDS011;47650;49.848;9.620;2023-05-07T14:40:42;3.23;;;2.50;;
61741;SDS011;47650;49.848;9.620;2023-05-07T14:43:09;2.97;;;2.30;;
61741;SDS011;47650;49.848;9.620;2023-05-07T14:45:36;3.28;;;2.88;;
61741;SDS011;47650;49.848;9.620;2023-05-07T14:48:02;2.90;;;2.47;;
61741;SDS011;47650;49.848;9.620;2023-05-07T14:52:56;2.78;;;2.50;;
61741;SDS011;47650;49.848;9.620;2023-05-07T14:55:22;3.40;;;2.50;;
61741;SDS011;47650;49.848;9.620;2023-05-07T14:57:47;3.65;;;2.55;;
61741;SDS011;47650;49.848;9.620;2023-05-07T15:00:14;2.85;;;2.53;;
61741;SDS011;47650;49.848;9.620;2023-05-07T15:02:40;7.60;;;4.25;;
61741;SDS011;47650;49.848;9.620;2023-05-07T15:05:05;3.17;;;2.65;;
61741;SDS011;47650;49.848;9.620;2023-05-07T15:07:32;3.80;;;3.40;;
61741;SDS011;47650;49.848;9.620;2023-05-07T15:12:29;4.32;;;3.45;;
61741;SDS011;47650;49.848;9.620;2023-05-07T15:14:56;3.10;;;2.70;;
61741;SDS011;47650;49.848;9.620;2023-05-07T15:17:23;3.50;;;3.20;;
61741;SDS011;47650;49.848;9.620;2023-05-07T15:19:56;3.60;;;2.80;;
61741;SDS011;47650;49.848;9.620;2023-05-07T15:22:23;3.17;;;2.88;;
61741;SDS011;47650;49.848;9.620;2023-05-07T15:24:48;3.38;;;3.05;;
61741;SDS011;47650;49.848;9.620;2023-05-07T15:27:14;3.70;;;2.90;;
61741;SDS011;47650;49.848;9.620;2023-05-07T15:29:39;5.53;;;3.10;;
61741;SDS011;47650;49.848;9.620;2023-05-07T15:32:05;3.30;;;3.00;;